sensor_id;sensor_type;location;lat;lon;timestamp;pressure;altitude;pressure_sealevel;temperature;humidity
43326;BME280;28920;59.862;30.636;2022-09-27T00:26:30;100836.72;;;7.84;100.00
43326;BME280;28920;59.862;30.636;2022-09-27T00:28:58;100831.56;;;7.81;100.00
43326;BME280;28920;59.862;30.636;2022-09-27T00:31:27;100833.47;;;7.79;100.00
43326;BME280;28920;59.862;30.636;2022-09-27T00:33:57;60944.00;;;-147.45;100.00
43326;BME280;28920;59.862;30.636;2022-09-27T00:36:26;77421.56;;;-147.45;100.00
43326;BME280;28920;59.862;30.636;2022-09-27T00:38:54;100826.53;;;7.76;100.00
43326;BME280;28920;59.862;30.636;2022-09-27T00:41:24;100838.03;;;7.77;100.00
43326;BME280;28920;59.862;30.636;2022-09-27T00:46:35;100835.44;;;7.75;100.00
43326;BME280;28920;59.862;30.636;2022-09-27T00:49:10;100846.34;;;7.71;100.00
43326;BME280;28920;59.862;30.636;2022-09-27T00:51:42;100838.66;;;7.66;100.00
43326;BME280;28920;59.862;30.636;2022-09-27T00:54:12;100839.53;;;7.96;100.00
43326;BME280;28920;59.862;30.636;2022-09-27T00:56:41;100840.22;;;7.70;100.00
43326;BME280;28920;59.862;30.636;2022-09-27T00:59:13;100832.31;;;7.69;100.00
43326;BME280;28920;59.862;30.636;2022-09-27T01:01:44;-16728.81;;;-147.45;100.00
43326;BME280;28920;59.862;30.636;2022-09-27T01:09:11;100832.31;;;7.69;100.00
43326;BME280;28920;59.862;30.636;2022-09-27T01:11:41;100840.09;;;7.57;100.00
43326;BME280;28920;59.862;30.636;2022-09-27T01:14:23;60944.00;;;-147.45;100.00
43326;BME280;28920;59.862;30.636;2022-09-27T01:16:57;60944.00;;;-147.45;100.00
43326;BME280;28920;59.862;30.636;2022-09-27T01:19:51;60944.00;;;-147.45;100.00
43326;BME280;28920;59.862;30.636;2022-09-27T01:22:23;60944.00;;;-147.45;100.00
43326;BME280;28920;59.862;30.636;2022-09-27T01:30:15;59767.03;;;-147.45;100.00
43326;BME280;28920;59.862;30.636;2022-09-27T01:32:50;59767.03;;;-147.45;100.00
43326;BME280;28920;59.862;30.636;2022-09-27T01:35:24;59767.03;;;-147.45;100.00
43326;BME280;28920;59.862;30.636;2022-09-27T01:38:02;59767.03;;;-147.45;100.00
43326;BME280;28920;59.862;30.636;2022-09-27T01:40:40;59767.03;;;-147.45;100.00
43326;BME280;28920;59.862;30.636;2022-09-27T01:43:18;59767.03;;;-147.45;100.00
43326;BME280;28920;59.862;30.636;2022-09-27T01:49:23;100851.41;;;7.30;100.00
43326;BME280;28920;59.862;30.636;2022-09-27T01:51:57;60944.00;;;-147.45;100.00
43326;BME280;28920;59.862;30.636;2022-09-27T01:54:32;60944.00;;;-147.45;100.00
43326;BME280;28920;59.862;30.636;2022-09-27T01:57:04;60944.00;;;-147.45;100.00
43326;BME280;28920;59.862;30.636;2022-09-27T01:59:37;60944.00;;;-147.45;100.00
43326;BME280;28920;59.862;30.636;2022-09-27T02:02:09;60944.00;;;-147.45;100.00
43326;BME280;28920;59.862;30.636;2022-09-27T02:07:22;60944.00;;;-147.45;100.00
43326;BME280;28920;59.862;30.636;2022-09-27T02:09:54;60944.00;;;-147.45;100.00
43326;BME280;28920;59.862;30.636;2022-09-27T02:12:27;60944.00;;;-147.45;100.00
43326;BME280;28920;59.862;30.636;2022-09-27T02:15:02;60944.00;;;-147.45;100.00
43326;BME280;28920;59.862;30.636;2022-09-27T02:17:39;60944.00;;;-147.45;100.00
43326;BME280;28920;59.862;30.636;2022-09-27T02:20:13;60944.00;;;-147.45;100.00
43326;BME280;28920;59.862;30.636;2022-09-27T02:25:23;100845.59;;;7.09;100.00
43326;BME280;28920;59.862;30.636;2022-09-27T02:27:57;60944.00;;;-147.45;100.00
43326;BME280;28920;59.862;30.636;2022-09-27T02:30:26;60944.00;;;-147.45;100.00
43326;BME280;28920;59.862;30.636;2022-09-27T02:32:54;60944.00;;;-147.45;100.00
43326;BME280;28920;59.862;30.636;2022-09-27T02:35:25;60944.00;;;-147.45;100.00
43326;BME280;28920;59.862;30.636;2022-09-27T02:37:56;60944.00;;;-147.45;100.00
43326;BME280;28920;59.862;30.636;2022-09-27T02:40:30;60944.00;;;-147.45;100.00
43326;BME280;28920;59.862;30.636;2022-09-27T03:10:16;100833.00;;;6.66;100.00
43326;BME280;28920;59.862;30.636;2022-09-27T03:12:45;100845.84;;;6.58;100.00
43326;BME280;28920;59.862;30.636;2022-09-27T03:15:12;100845.84;;;-99.72;100.00
43326;BME280;28920;59.862;30.636;2022-09-27T03:17:43;60944.00;;;-147.45;100.00
43326;BME280;28920;59.862;30.636;2022-09-27T03:20:19;60944.00;;;-147.45;100.00
43326;BME280;28920;59.862;30.636;2022-09-27T03:22:47;60944.00;;;-147.45;100.00
43326;BME280;28920;59.862;30.636;2022-09-27T03:25:16;60944.00;;;-147.45;100.00
43326;BME280;28920;59.862;30.636;2022-09-27T05:00:48;100881.66;;;6.65;100.00
43326;BME280;28920;59.862;30.636;2022-09-27T05:03:20;100881.66;;;6.65;100.00
43326;BME280;28920;59.862;30.636;2022-09-27T05:05:49;100873.19;;;6.74;100.00
43326;BME280;28920;59.862;30.636;2022-09-27T05:08:16;100873.19;;;6.74;100.00
43326;BME280;28920;59.862;30.636;2022-09-27T05:10:44;60944.00;;;-147.45;100.00
43326;BME280;28920;59.862;30.636;2022-09-27T05:13:12;60944.00;;;-147.45;100.00
43326;BME280;28920;59.862;30.636;2022-09-27T05:15:40;100873.19;;;6.74;100.00
43326;BME280;28920;59.862;30.636;2022-09-27T05:23:10;100865.69;;;-140.82;100.00
43326;BME280;28920;59.862;30.636;2022-09-27T05:25:37;60906.50;;;-147.45;100.00
43326;BME280;28920;59.862;30.636;2022-09-27T05:28:05;60906.50;;;-147.45;100.00
43326;BME280;28920;59.862;30.636;2022-09-27T05:30:33;60906.50;;;-147.45;100.00
43326;BME280;28920;59.862;30.636;2022-09-27T05:33:03;60906.50;;;-147.45;100.00
43326;BME280;28920;59.862;30.636;2022-09-27T05:35:33;60906.50;;;-147.45;100.00
43326;BME280;28920;59.862;30.636;2022-09-27T05:38:02;60906.50;;;-147.45;100.00
43326;BME280;28920;59.862;30.636;2022-09-27T05:44:51;100883.38;;;7.88;100.00
43326;BME280;28920;59.862;30.636;2022-09-27T05:47:19;100884.31;;;7.87;100.00
43326;BME280;28920;59.862;30.636;2022-09-27T05:49:47;100889.56;;;7.89;100.00
43326;BME280;28920;59.862;30.636;2022-09-27T05:52:14;100893.91;;;7.90;100.00
43326;BME280;28920;59.862;30.636;2022-09-27T05:54:41;100899.03;;;7.93;100.00
43326;BME280;28920;59.862;30.636;2022-09-27T05:57:09;100905.03;;;7.97;100.00
43326;BME280;28920;59.862;30.636;2022-09-27T05:59:37;100899.50;;;8.00;100.00
43326;BME280;28920;59.862;30.636;2022-09-27T06:51:07;100920.81;;;10.57;100.00
43326;BME280;28920;59.862;30.636;2022-09-27T06:53:34;100918.03;;;10.96;100.00
43326;BME280;28920;59.862;30.636;2022-09-27T06:56:02;60944.00;;;-147.45;100.00
43326;BME280;28920;59.862;30.636;2022-09-27T06:58:30;60944.00;;;-147.45;100.00
43326;BME280;28920;59.862;30.636;2022-09-27T07:01:19;100918.03;;;10.96;100.00
43326;BME280;28920;59.862;30.636;2022-09-27T07:03:51;60944.00;;;-147.45;100.00
43326;BME280;28920;59.862;30.636;2022-09-27T07:06:20;60944.00;;;-147.45;100.00
43326;BME280;28920;59.862;30.636;2022-09-27T10:48:04;100946.91;;;14.40;59.20
43326;BME280;28920;59.862;30.636;2022-09-27T10:50:32;100944.91;;;14.32;61.98
43326;BME280;28920;59.862;30.636;2022-09-27T10:53:04;100950.22;;;14.22;60.16
43326;BME280;28920;59.862;30.636;2022-09-27T10:55:34;100949.78;;;14.17;60.21
43326;BME280;28920;59.862;30.636;2022-09-27T10:58:03;100949.31;;;14.12;62.88
43326;BME280;28920;59.862;30.636;2022-09-27T11:00:31;100950.38;;;13.99;64.63
43326;BME280;28920;59.862;30.636;2022-09-27T11:03:03;100953.78;;;14.01;65.50
43326;BME280;28920;59.862;30.636;2022-09-27T11:10:34;100952.28;;;13.87;68.00
43326;BME280;28920;59.862;30.636;2022-09-27T11:13:11;100949.59;;;13.87;66.39
43326;BME280;28920;59.862;30.636;2022-09-27T11:16:05;100948.56;;;13.78;67.89
43326;BME280;28920;59.862;30.636;2022-09-27T11:18:49;100952.34;;;13.55;68.46
43326;BME280;28920;59.862;30.636;2022-09-27T11:21:28;100951.44;;;13.44;71.95
43326;BME280;28920;59.862;30.636;2022-09-27T11:24:16;100943.59;;;13.41;70.44
43326;BME280;28920;59.862;30.636;2022-09-27T11:30:14;100949.66;;;12.55;74.56
43326;BME280;28920;59.862;30.636;2022-09-27T11:33:00;100953.13;;;13.01;73.55
43326;BME280;28920;59.862;30.636;2022-09-27T11:35:46;100946.66;;;13.48;68.94
43326;BME280;28920;59.862;30.636;2022-09-27T11:38:24;100950.97;;;13.82;66.59
43326;BME280;28920;59.862;30.636;2022-09-27T11:41:10;100944.38;;;13.86;64.47
43326;BME280;28920;59.862;30.636;2022-09-27T11:44:13;100939.47;;;14.22;66.01
43326;BME280;28920;59.862;30.636;2022-09-27T11:53:43;100937.50;;;15.65;60.46
43326;BME280;28920;59.862;30.636;2022-09-27T11:56:19;100943.34;;;15.41;59.40
43326;BME280;28920;59.862;30.636;2022-09-27T11:59:01;100942.19;;;15.04;62.84
43326;BME280;28920;59.862;30.636;2022-09-27T12:01:37;100940.44;;;14.52;65.52
43326;BME280;28920;59.862;30.636;2022-09-27T12:04:33;100949.41;;;14.31;67.75
43326;BME280;28920;59.862;30.636;2022-09-27T12:12:11;100943.78;;;14.35;73.02
43326;BME280;28920;59.862;30.636;2022-09-27T12:14:43;100942.72;;;14.98;65.70
43326;BME280;28920;59.862;30.636;2022-09-27T12:17:14;100936.09;;;15.61;67.81
43326;BME280;28920;59.862;30.636;2022-09-27T12:19:45;100936.09;;;15.61;61.64
43326;BME280;28920;59.862;30.636;2022-09-27T12:22:20;100941.03;;;15.76;62.93
43326;BME280;28920;59.862;30.636;2022-09-27T12:24:49;100944.81;;;16.03;59.77
43326;BME280;28920;59.862;30.636;2022-09-27T12:30:12;100939.31;;;16.04;56.29
43326;BME280;28920;59.862;30.636;2022-09-27T12:32:50;100936.62;;;15.84;56.50
43326;BME280;28920;59.862;30.636;2022-09-27T12:35:22;100942.88;;;15.55;58.75
43326;BME280;28920;59.862;30.636;2022-09-27T12:37:51;100942.31;;;15.81;58.10
43326;BME280;28920;59.862;30.636;2022-09-27T12:40:25;100931.00;;;15.19;57.76
43326;BME280;28920;59.862;30.636;2022-09-27T12:43:00;100899.59;;;14.89;58.32
43326;BME280;28920;59.862;30.636;2022-09-27T12:49:08;100927.56;;;14.77;56.68
43326;BME280;28920;59.862;30.636;2022-09-27T12:51:40;100923.28;;;14.65;57.62
43326;BME280;28920;59.862;30.636;2022-09-27T12:54:25;100928.97;;;14.81;59.78
43326;BME280;28920;59.862;30.636;2022-09-27T12:57:02;100921.75;;;14.31;62.06
43326;BME280;28920;59.862;30.636;2022-09-27T12:59:52;100926.81;;;14.24;63.21
43326;BME280;28920;59.862;30.636;2022-09-27T13:02:50;100924.38;;;14.21;63.20
43326;BME280;28920;59.862;30.636;2022-09-27T13:10:45;100923.28;;;14.02;65.33
43326;BME280;28920;59.862;30.636;2022-09-27T13:13:23;100914.69;;;13.77;63.56
43326;BME280;28920;59.862;30.636;2022-09-27T13:15:56;100908.69;;;13.64;64.87
43326;BME280;28920;59.862;30.636;2022-09-27T13:18:49;100917.25;;;13.58;66.96
43326;BME280;28920;59.862;30.636;2022-09-27T13:21:54;100913.31;;;13.62;67.70
43326;BME280;28920;59.862;30.636;2022-09-27T13:24:42;100919.91;;;13.58;65.33
43326;BME280;28920;59.862;30.636;2022-09-27T13:36:05;100924.81;;;13.20;67.68
43326;BME280;28920;59.862;30.636;2022-09-27T13:38:33;100918.31;;;13.01;68.60
43326;BME280;28920;59.862;30.636;2022-09-27T13:41:13;100918.19;;;12.91;69.17
43326;BME280;28920;59.862;30.636;2022-09-27T13:43:57;100932.47;;;12.80;71.23
43326;BME280;28920;59.862;30.636;2022-09-27T13:46:33;100926.41;;;12.67;72.89
43326;BME280;28920;59.862;30.636;2022-09-27T13:54:01;100926.91;;;12.61;72.63
43326;BME280;28920;59.862;30.636;2022-09-27T13:56:51;100924.22;;;12.72;72.81
43326;BME280;28920;59.862;30.636;2022-09-27T13:59:24;100921.56;;;12.61;71.19
43326;BME280;28920;59.862;30.636;2022-09-27T14:02:02;100927.03;;;12.48;72.91
43326;BME280;28920;59.862;30.636;2022-09-27T14:04:40;100928.25;;;12.66;73.14
43326;BME280;28920;59.862;30.636;2022-09-27T14:07:12;100917.31;;;12.35;75.23
43326;BME280;28920;59.862;30.636;2022-09-27T14:09:45;100928.25;;;12.32;77.68
43326;BME280;28920;59.862;30.636;2022-09-27T14:16:43;100930.00;;;11.86;92.82
43326;BME280;28920;59.862;30.636;2022-09-27T14:19:15;100914.44;;;11.68;95.78
43326;BME280;28920;59.862;30.636;2022-09-27T14:21:44;100921.31;;;11.60;97.18
43326;BME280;28920;59.862;30.636;2022-09-27T14:24:25;100917.31;;;11.65;98.32
43326;BME280;28920;59.862;30.636;2022-09-27T14:27:08;100918.16;;;11.54;99.08
43326;BME280;28920;59.862;30.636;2022-09-27T14:29:40;100925.00;;;11.34;100.00
43326;BME280;28920;59.862;30.636;2022-09-27T14:37:23;100928.03;;;11.30;100.00
43326;BME280;28920;59.862;30.636;2022-09-27T14:39:57;100934.00;;;11.09;100.00
43326;BME280;28920;59.862;30.636;2022-09-27T14:42:26;100925.59;;;11.02;100.00
43326;BME280;28920;59.862;30.636;2022-09-27T14:44:59;100932.13;;;10.98;100.00
43326;BME280;28920;59.862;30.636;2022-09-27T14:47:27;100925.13;;;10.84;100.00
43326;BME280;28920;59.862;30.636;2022-09-27T14:49:56;100938.41;;;10.73;100.00
43326;BME280;28920;59.862;30.636;2022-09-27T14:52:27;100931.81;;;10.65;100.00
43326;BME280;28920;59.862;30.636;2022-09-27T14:59:55;100932.47;;;10.56;100.00
43326;BME280;28920;59.862;30.636;2022-09-27T15:02:24;100936.28;;;10.52;100.00
43326;BME280;28920;59.862;30.636;2022-09-27T15:04:52;100934.81;;;10.48;100.00
43326;BME280;28920;59.862;30.636;2022-09-27T15:07:20;100933.84;;;10.49;100.00
43326;BME280;28920;59.862;30.636;2022-09-27T15:09:49;100940.91;;;10.50;100.00
43326;BME280;28920;59.862;30.636;2022-09-27T15:12:22;100934.59;;;10.51;100.00
43326;BME280;28920;59.862;30.636;2022-09-27T15:14:53;100932.06;;;10.49;100.00
43326;BME280;28920;59.862;30.636;2022-09-27T15:21:37;100939.84;;;10.52;100.00
43326;BME280;28920;59.862;30.636;2022-09-27T15:24:32;100931.94;;;10.51;100.00
43326;BME280;28920;59.862;30.636;2022-09-27T15:26:53;100939.84;;;10.52;100.00
43326;BME280;28920;59.862;30.636;2022-09-27T15:29:23;100935.69;;;10.48;100.00
43326;BME280;28920;59.862;30.636;2022-09-27T15:31:57;100937.91;;;10.41;100.00
43326;BME280;28920;59.862;30.636;2022-09-27T15:34:25;100934.16;;;10.31;100.00
43326;BME280;28920;59.862;30.636;2022-09-27T15:36:54;100944.09;;;10.29;100.00
43326;BME280;28920;59.862;30.636;2022-09-27T15:43:37;100935.91;;;10.19;100.00
43326;BME280;28920;59.862;30.636;2022-09-27T15:46:24;100929.69;;;10.19;100.00
43326;BME280;28920;59.862;30.636;2022-09-27T15:49:26;100938.44;;;10.21;100.00
43326;BME280;28920;59.862;30.636;2022-09-27T15:51:57;100939.84;;;10.00;100.00
43326;BME280;28920;59.862;30.636;2022-09-27T15:54:26;100932.41;;;9.93;100.00
43326;BME280;28920;59.862;30.636;2022-09-27T15:56:56;100936.44;;;9.85;100.00
43326;BME280;28920;59.862;30.636;2022-09-27T16:04:26;100937.78;;;9.65;100.00
43326;BME280;28920;59.862;30.636;2022-09-27T16:06:59;100935.84;;;9.54;100.00
43326;BME280;28920;59.862;30.636;2022-09-27T16:09:27;100927.75;;;9.43;100.00
43326;BME280;28920;59.862;30.636;2022-09-27T16:11:54;100935.16;;;9.38;100.00
43326;BME280;28920;59.862;30.636;2022-09-27T16:14:22;100948.13;;;9.29;100.00
43326;BME280;28920;59.862;30.636;2022-09-27T16:16:51;100937.69;;;9.26;100.00
43326;BME280;28920;59.862;30.636;2022-09-27T16:19:19;100942.66;;;9.18;100.00
43326;BME280;28920;59.862;30.636;2022-09-27T16:26:44;100941.87;;;9.03;100.00
43326;BME280;28920;59.862;30.636;2022-09-27T16:29:13;100936.31;;;8.93;100.00
43326;BME280;28920;59.862;30.636;2022-09-27T16:31:41;100938.31;;;8.89;100.00
43326;BME280;28920;59.862;30.636;2022-09-27T16:34:09;100945.03;;;8.81;100.00
43326;BME280;28920;59.862;30.636;2022-09-27T16:36:37;100948.97;;;8.75;100.00
43326;BME280;28920;59.862;30.636;2022-09-27T16:39:06;100940.31;;;8.71;100.00
43326;BME280;28920;59.862;30.636;2022-09-27T16:41:33;100949.53;;;8.66;100.00
43326;BME280;28920;59.862;30.636;2022-09-27T16:49:01;100959.34;;;8.51;100.00
43326;BME280;28920;59.862;30.636;2022-09-27T16:51:28;100949.25;;;8.41;100.00
43326;BME280;28920;59.862;30.636;2022-09-27T16:54:14;100958.28;;;8.39;100.00
43326;BME280;28920;59.862;30.636;2022-09-27T16:56:41;100959.53;;;8.33;100.00
43326;BME280;28920;59.862;30.636;2022-09-27T16:59:10;100952.31;;;8.35;100.00
43326;BME280;28920;59.862;30.636;2022-09-27T17:01:37;100955.03;;;8.33;100.00
43326;BME280;28920;59.862;30.636;2022-09-27T17:04:06;100957.81;;;8.32;100.00
43326;BME280;28920;59.862;30.636;2022-09-27T17:11:32;100954.00;;;8.21;100.00
43326;BME280;28920;59.862;30.636;2022-09-27T17:14:00;100959.50;;;8.18;100.00
43326;BME280;28920;59.862;30.636;2022-09-27T17:16:27;100960.75;;;8.13;100.00
43326;BME280;28920;59.862;30.636;2022-09-27T17:18:54;100962.91;;;8.06;100.00
43326;BME280;28920;59.862;30.636;2022-09-27T17:21:21;100965.19;;;7.98;100.00
43326;BME280;28920;59.862;30.636;2022-09-27T17:23:49;100966.50;;;7.90;100.00
43326;BME280;28920;59.862;30.636;2022-09-27T17:26:18;100964.22;;;7.84;100.00
43326;BME280;28920;59.862;30.636;2022-09-27T17:33:46;100967.22;;;7.63;100.00
43326;BME280;28920;59.862;30.636;2022-09-27T17:36:15;100970.22;;;7.57;100.00
43326;BME280;28920;59.862;30.636;2022-09-27T17:38:43;100960.88;;;7.50;100.00
43326;BME280;28920;59.862;30.636;2022-09-27T17:41:12;100960.19;;;7.46;100.00
43326;BME280;28920;59.862;30.636;2022-09-27T17:43:42;100977.19;;;7.44;100.00
43326;BME280;28920;59.862;30.636;2022-09-27T17:46:17;100974.69;;;7.41;100.00
43326;BME280;28920;59.862;30.636;2022-09-27T17:48:49;100973.94;;;7.38;100.00
43326;BME280;28920;59.862;30.636;2022-09-27T17:51:41;100980.09;;;7.39;100.00
43326;BME280;28920;59.862;30.636;2022-09-27T17:54:09;100962.87;;;7.30;100.00
43326;BME280;28920;59.862;30.636;2022-09-27T17:56:37;100978.75;;;7.32;100.00
43326;BME280;28920;59.862;30.636;2022-09-27T17:59:06;100972.56;;;7.31;100.00
43326;BME280;28920;59.862;30.636;2022-09-27T18:01:35;100975.31;;;7.30;100.00
43326;BME280;28920;59.862;30.636;2022-09-27T18:04:07;100981.66;;;7.27;100.00
43326;BME280;28920;59.862;30.636;2022-09-27T18:06:36;100984.50;;;7.24;100.00
43326;BME280;28920;59.862;30.636;2022-09-27T18:14:05;100934.25;;;6.89;100.00
43326;BME280;28920;59.862;30.636;2022-09-27T18:16:34;100976.37;;;7.11;100.00
43326;BME280;28920;59.862;30.636;2022-09-27T18:19:06;100982.69;;;7.08;100.00
43326;BME280;28920;59.862;30.636;2022-09-27T18:21:34;100977.13;;;6.97;100.00
43326;BME280;28920;59.862;30.636;2022-09-27T18:24:01;100971.25;;;6.92;100.00
43326;BME280;28920;59.862;30.636;2022-09-27T18:26:33;100972.16;;;6.91;100.00
43326;BME280;28920;59.862;30.636;2022-09-27T18:29:09;100981.69;;;6.95;100.00
43326;BME280;28920;59.862;30.636;2022-09-27T18:32:16;100984.59;;;6.90;100.00
43326;BME280;28920;59.862;30.636;2022-09-27T18:34:43;100978.41;;;6.90;100.00
43326;BME280;28920;59.862;30.636;2022-09-27T18:37:11;100979.34;;;6.89;100.00
43326;BME280;28920;59.862;30.636;2022-09-27T18:39:38;100974.81;;;6.91;100.00
43326;BME280;28920;59.862;30.636;2022-09-27T18:42:06;100974.81;;;6.91;100.00
43326;BME280;28920;59.862;30.636;2022-09-27T18:44:34;100975.69;;;6.91;100.00
43326;BME280;28920;59.862;30.636;2022-09-27T18:47:01;100973.91;;;6.92;100.00
43326;BME280;28920;59.862;30.636;2022-09-27T18:54:27;100981.59;;;6.96;100.00
43326;BME280;28920;59.862;30.636;2022-09-27T18:56:55;100979.87;;;6.95;100.00
43326;BME280;28920;59.862;30.636;2022-09-27T18:59:22;100978.09;;;6.96;100.00
43326;BME280;28920;59.862;30.636;2022-09-27T19:01:49;100983.38;;;6.96;100.00
43326;BME280;28920;59.862;30.636;2022-09-27T19:04:19;100979.87;;;6.95;100.00
43326;BME280;28920;59.862;30.636;2022-09-27T19:06:49;100977.22;;;6.95;100.00
43326;BME280;28920;59.862;30.636;2022-09-27T19:09:17;100975.63;;;6.93;100.00
43326;BME280;28920;59.862;30.636;2022-09-27T19:16:43;100978.78;;;6.84;100.00
43326;BME280;28920;59.862;30.636;2022-09-27T19:19:13;100979.16;;;6.76;100.00
43326;BME280;28920;59.862;30.636;2022-09-27T19:21:40;100975.84;;;6.72;100.00
43326;BME280;28920;59.862;30.636;2022-09-27T19:24:07;100974.28;;;6.68;100.00
43326;BME280;28920;59.862;30.636;2022-09-27T19:26:34;100975.66;;;6.59;100.00
43326;BME280;28920;59.862;30.636;2022-09-27T19:29:02;100975.91;;;6.54;100.00
43326;BME280;28920;59.862;30.636;2022-09-27T19:31:30;100979.91;;;6.46;100.00
43326;BME280;28920;59.862;30.636;2022-09-27T19:38:55;100980.53;;;6.17;100.00
43326;BME280;28920;59.862;30.636;2022-09-27T19:41:24;100974.00;;;6.07;100.00
43326;BME280;28920;59.862;30.636;2022-09-27T19:43:51;100969.69;;;6.04;100.00
43326;BME280;28920;59.862;30.636;2022-09-27T19:46:20;100974.44;;;5.97;100.00
43326;BME280;28920;59.862;30.636;2022-09-27T19:48:48;100978.25;;;5.92;100.00
43326;BME280;28920;59.862;30.636;2022-09-27T19:51:18;100974.91;;;5.88;100.00
43326;BME280;28920;59.862;30.636;2022-09-27T19:53:45;100977.00;;;5.81;100.00
43326;BME280;28920;59.862;30.636;2022-09-27T20:00:37;100976.72;;;5.70;100.00
43326;BME280;28920;59.862;30.636;2022-09-27T20:03:04;100975.75;;;5.53;100.00
43326;BME280;28920;59.862;30.636;2022-09-27T20:05:31;100974.28;;;5.48;100.00
43326;BME280;28920;59.862;30.636;2022-09-27T20:07:59;100967.56;;;5.40;100.00
43326;BME280;28920;59.862;30.636;2022-09-27T20:10:26;100963.38;;;5.36;100.00
43326;BME280;28920;59.862;30.636;2022-09-27T20:12:53;100965.22;;;5.34;100.00
43326;BME280;28920;59.862;30.636;2022-09-27T20:15:20;100978.47;;;5.34;100.00
43326;BME280;28920;59.862;30.636;2022-09-27T20:22:46;100966.22;;;5.32;100.00
43326;BME280;28920;59.862;30.636;2022-09-27T20:25:14;100972.53;;;5.29;100.00
43326;BME280;28920;59.862;30.636;2022-09-27T20:27:41;100965.53;;;5.28;100.00
43326;BME280;28920;59.862;30.636;2022-09-27T20:30:10;100970.19;;;5.23;100.00
43326;BME280;28920;59.862;30.636;2022-09-27T20:32:37;100957.19;;;5.18;100.00
43326;BME280;28920;59.862;30.636;2022-09-27T20:35:05;100971.41;;;5.15;100.00
43326;BME280;28920;59.862;30.636;2022-09-27T20:37:32;100975.28;;;5.08;100.00
43326;BME280;28920;59.862;30.636;2022-09-27T20:44:58;100983.66;;;4.99;100.00
43326;BME280;28920;59.862;30.636;2022-09-27T20:47:26;100979.44;;;4.95;100.00
43326;BME280;28920;59.862;30.636;2022-09-27T20:49:54;100969.88;;;4.92;100.00
43326;BME280;28920;59.862;30.636;2022-09-27T20:52:21;100976.16;;;4.90;100.00
43326;BME280;28920;59.862;30.636;2022-09-27T20:54:48;100978.19;;;4.84;100.00
43326;BME280;28920;59.862;30.636;2022-09-27T20:57:15;100984.50;;;4.80;100.00
43326;BME280;28920;59.862;30.636;2022-09-27T20:59:42;100984.03;;;4.72;100.00
43326;BME280;28920;59.862;30.636;2022-09-27T21:07:09;101001.16;;;4.63;100.00
43326;BME280;28920;59.862;30.636;2022-09-27T21:09:36;100988.16;;;4.58;100.00
43326;BME280;28920;59.862;30.636;2022-09-27T21:12:04;100997.16;;;4.54;100.00
43326;BME280;28920;59.862;30.636;2022-09-27T21:14:31;100994.88;;;4.47;100.00
43326;BME280;28920;59.862;30.636;2022-09-27T21:16:58;100994.16;;;4.43;100.00
43326;BME280;28920;59.862;30.636;2022-09-27T21:19:25;100983.91;;;4.35;100.00
43326;BME280;28920;59.862;30.636;2022-09-27T21:21:54;100991.12;;;4.31;100.00
43326;BME280;28920;59.862;30.636;2022-09-27T21:29:07;100987.69;;;4.29;100.00
43326;BME280;28920;59.862;30.636;2022-09-27T21:31:35;100983.69;;;4.21;100.00
43326;BME280;28920;59.862;30.636;2022-09-27T21:34:04;100988.38;;;4.14;100.00
43326;BME280;28920;59.862;30.636;2022-09-27T21:36:32;100974.12;;;3.97;100.00
43326;BME280;28920;59.862;30.636;2022-09-27T21:39:01;100991.47;;;4.03;100.00
43326;BME280;28920;59.862;30.636;2022-09-27T21:41:28;100995.19;;;3.99;100.00
43326;BME280;28920;59.862;30.636;2022-09-27T21:43:56;100992.66;;;3.96;100.00
43326;BME280;28920;59.862;30.636;2022-09-27T21:51:24;100989.56;;;3.86;100.00
43326;BME280;28920;59.862;30.636;2022-09-27T21:53:52;100981.88;;;3.80;100.00
43326;BME280;28920;59.862;30.636;2022-09-27T21:56:20;100987.50;;;3.72;100.00
43326;BME280;28920;59.862;30.636;2022-09-27T21:58:48;100986.78;;;3.68;100.00
43326;BME280;28920;59.862;30.636;2022-09-27T22:01:17;100984.06;;;3.70;100.00
43326;BME280;28920;59.862;30.636;2022-09-27T22:03:45;100985.25;;;3.62;100.00
43326;BME280;28920;59.862;30.636;2022-09-27T22:06:15;100972.31;;;3.56;100.00
43326;BME280;28920;59.862;30.636;2022-09-27T22:13:34;100965.63;;;3.47;100.00
43326;BME280;28920;59.862;30.636;2022-09-27T22:16:03;100963.28;;;3.41;100.00
43326;BME280;28920;59.862;30.636;2022-09-27T22:18:31;100973.81;;;3.41;100.00
43326;BME280;28920;59.862;30.636;2022-09-27T22:21:01;100965.09;;;3.39;100.00
43326;BME280;28920;59.862;30.636;2022-09-27T22:23:29;100967.06;;;3.34;100.00
43326;BME280;28920;59.862;30.636;2022-09-27T22:25:56;100969.84;;;3.31;100.00
43326;BME280;28920;59.862;30.636;2022-09-27T22:28:24;100962.81;;;3.30;100.00
43326;BME280;28920;59.862;30.636;2022-09-27T22:35:50;100964.12;;;3.19;100.00
43326;BME280;28920;59.862;30.636;2022-09-27T22:38:18;100957.25;;;3.15;100.00
43326;BME280;28920;59.862;30.636;2022-09-27T22:40:52;100963.28;;;3.19;100.00
43326;BME280;28920;59.862;30.636;2022-09-27T22:43:20;100963.66;;;3.10;100.00
43326;BME280;28920;59.862;30.636;2022-09-27T22:45:48;100952.50;;;3.03;100.00
43326;BME280;28920;59.862;30.636;2022-09-27T22:48:15;100963.13;;;3.00;100.00
43326;BME280;28920;59.862;30.636;2022-09-27T22:50:42;100959.88;;;2.93;100.00
43326;BME280;28920;59.862;30.636;2022-09-27T22:58:02;100947.03;;;2.85;100.00
43326;BME280;28920;59.862;30.636;2022-09-27T23:00:30;100942.84;;;2.80;100.00